Latest Coastal Weather Observations for Mandurah

IDW60701

Issued at 7:13 pm WST Sunday 9 August 2020 (issued every 10 minutes, with the page automatically refreshed every 10 minutes)

About coastal observations | Map of coastal stations | Coastal observations for WA | Marine services | Other Formats
Station Details ID: 009977 Name: MANDURAH Lat: -32.52 Lon: 115.71 Height: 3.0 m
Data from the previous 72 hours. | See also: Recent months at Mandurah
Date/Time
WST
Wind Sea
Height
m
Swell Vis
km
Cloud Weather Temp
°C
Press
hPa
Rain since
9am
mm
Dir  Spd
kts
Gust
kts
Height
m
Period
s
Dir
09/07:00pm NW 23 31 - - - - - - - 16.8 995.9 19.0
09/06:30pm NW 23 30 - - - - - - - 16.8 995.8 19.0
09/06:00pm NW 24 30 - - - - - - - 16.9 995.6 19.0
09/05:30pm NW 21 27 - - - - - - - 16.5 995.4 19.0
09/05:00pm NW 24 29 - - - - - - - 16.3 995.3 19.0
09/04:30pm NW 18 27 - - - - - - - 16.9 995.2 19.0
09/04:28pm NW 16 27 - - - - - - - 16.5 995.2 19.0
09/04:00pm NW 16 22 - - - - - - - 16.5 995.1 18.8
09/03:51pm NNW 15 20 - - - - - - - 16.5 995.4 18.8
09/03:30pm N 20 25 - - - - - - - 15.4 995.4 18.6
09/03:00pm N 19 24 - - - - - - Rain 15.0 995.5 18.6
09/02:30pm N 23 27 - - - - - - - 15.1 995.1 16.8
09/02:00pm N 22 29 - - - - - - - 14.4 995.6 16.8
09/01:50pm NNW 16 30 - - - - - - - 14.4 995.5 16.6
09/01:30pm NNE 18 23 - - - - - - - 14.6 995.4 9.6
09/01:00pm NNE 21 28 - - - - - - - 14.4 995.7 9.2
09/12:38pm NNE 24 34 - - - - - - - 14.3 996.0 9.2
09/12:30pm NNE 20 25 - - - - - - - 14.3 996.1 9.2
09/12:00pm NNE 22 29 - - - - - - Rain 14.0 996.7 9.2
09/11:30am NNE 21 30 - - - - - - - 14.2 997.3 6.2
09/11:00am NNE 22 28 - - - - - - - 13.9 997.2 6.2
09/10:48am N 22 33 - - - - - - - 13.8 997.8 6.0
09/10:30am NNE 23 28 - - - - - - - 14.0 998.4 3.0
09/10:00am NNE 22 33 - - - - - - - 13.8 998.3 1.8
09/09:58am NNE 22 32 - - - - - - - 13.8 998.2 1.8
09/09:30am NNE 28 37 - - - - - - - 13.6 998.7 1.8
09/09:00am NNE 25 31 - - - - - - Rain 13.7 998.5 2.6
09/08:30am NNE 26 33 - - - - - - - 14.0 998.4 1.8
09/08:00am NNE 19 27 - - - - - - - 14.1 998.2 1.2
09/07:30am NNE 25 36 - - - - - - - 14.9 997.9 1.0
09/07:10am NNE 18 29 - - - - - - - 15.4 998.8 0.6
09/07:00am NNE 19 28 - - - - - - - 15.4 998.6 0.6
09/06:48am NE 21 31 - - - - - - - 15.3 998.7 0.6
09/06:30am NE 24 32 - - - - - - - 15.2 998.1 0.4
09/06:00am NE 24 33 - - - - - - Recent precip. 15.7 999.3 0.4
09/05:39am NE 24 36 - - - - - - - 15.6 1000.1 0.4
09/05:30am NE 21 28 - - - - - - - 15.6 1000.4 0.4
09/05:00am NE 21 26 - - - - - - - 15.9 1000.8 0.2
09/04:30am NE 17 22 - - - - - - - 16.2 1001.2 0.2
09/04:00am NE 18 25 - - - - - - - 17.0 1001.7 0.2
09/03:30am NE 18 23 - - - - - - - 17.3 1001.0 0.2
09/03:00am NE 19 27 - - - - - - - 17.1 1001.5 0.0
09/02:30am NE 17 24 - - - - - - - 17.5 1002.5 0.0
09/02:00am NNE 23 38 - - - - - - - 18.9 1003.4 0.0
09/01:41am NNE 19 35 - - - - - - - 19.0 1004.1 0.0
09/01:30am NE 20 27 - - - - - - - 19.1 1003.2 0.0
09/01:23am NE 20 30 - - - - - - - 19.4 1003.1 0.0
09/01:00am NNE 22 30 - - - - - - - 19.3 1003.7 0.0
09/12:56am NE 23 34 - - - - - - - 19.1 1003.9 0.0
09/12:30am NE 22 29 - - - - - - - 19.3 1003.9 0.0
09/12:00am NE 20 26 - - - - - - - 19.4 1004.7 0.0
 
Date/Time
WST
Wind Sea
Height
m
Swell Vis
km
Cloud Weather Temp
°C
Press
hPa
Rain since
9am
mm
Dir  Spd
kts
Gust
kts
Height
m
Period
s
Dir
08/11:30pm NE 19 25 - - - - - - - 19.1 1005.4 0.0
08/11:00pm NE 20 28 - - - - - - - 18.9 1005.7 0.0
08/10:30pm NE 20 28 - - - - - - - 18.9 1006.4 0.0
08/10:00pm NE 19 26 - - - - - - - 18.9 1007.2 0.0
08/09:30pm NE 18 24 - - - - - - - 18.8 1007.1 0.0
08/09:00pm NE 16 22 - - - - - - - 18.9 1007.7 0.0
08/08:30pm NE 16 24 - - - - - - - 18.9 1008.3 0.0
08/08:00pm NE 16 21 - - - - - - - 18.9 1008.9 0.0
08/07:30pm NE 14 18 - - - - - - - 18.9 1009.0 0.0
08/07:00pm NE 12 15 - - - - - - - 18.9 1009.4 0.0
08/06:30pm NE 14 17 - - - - - - - 19.1 1009.5 0.0
08/06:00pm NE 13 19 - - - - - - - 19.3 1008.6 0.0
08/05:30pm ENE 11 16 - - - - - - - 19.4 1008.5 0.0
08/05:00pm NE 12 18 - - - - - - - 19.5 1008.9 0.0
08/04:30pm ENE 10 15 - - - - - - - 19.6 1008.9 0.0
08/04:00pm ENE 12 16 - - - - - - - 19.9 1009.7 0.0
08/03:30pm NE 12 16 - - - - - - - 19.7 1010.1 0.0
08/03:00pm NE 16 20 - - - - - - - 19.5 1010.3 0.0
08/02:30pm NE 17 23 - - - - - - - 19.5 1010.7 0.0
08/02:00pm NE 17 25 - - - - - - - 19.5 1011.5 0.0
08/01:30pm NE 18 23 - - - - - - - 18.8 1012.2 0.0
08/01:00pm NE 18 27 - - - - - - - 18.6 1012.7 0.0
08/12:30pm NE 19 28 - - - - - - - 17.8 1013.5 0.0
08/12:08pm NE 17 27 - - - - - - - 17.5 1014.2 0.0
08/12:00pm NE 20 27 - - - - - - - 17.4 1014.3 0.0
08/11:30am NE 17 24 - - - - - - - 16.8 1015.0 0.0
08/11:00am NE 15 22 - - - - - - - 15.6 1015.7 0.0
08/10:30am NE 17 24 - - - - - - - 15.2 1016.1 0.0
08/10:00am NE 18 26 - - - - - - - 14.6 1016.3 0.0
08/09:30am NE 20 29 - - - - - - - 14.1 1016.5 0.0
08/09:00am NE 19 27 - - - - - - - 13.4 1016.9 0.0
08/08:30am NE 18 24 - - - - - - - 12.8 1017.2 0.0
08/08:00am NE 14 20 - - - - - - - 12.5 1017.2 0.0
08/07:30am NE 15 22 - - - - - - - 12.3 1017.2 0.0
08/07:00am ENE 14 22 - - - - - - - 11.9 1017.3 0.0
08/06:30am ENE 16 22 - - - - - - - 11.9 1017.2 0.0
08/06:00am NE 14 21 - - - - - - - 12.2 1017.3 0.0
08/05:30am ENE 11 18 - - - - - - - 12.0 1017.3 0.0
08/05:00am ENE 13 20 - - - - - - - 12.2 1017.3 0.0
08/04:30am ENE 10 17 - - - - - - - 11.8 1017.7 0.0
08/04:00am ENE 9 14 - - - - - - - 11.7 1018.0 0.0
08/03:30am ENE 8 15 - - - - - - - 11.5 1018.2 0.0
08/03:00am ENE 9 13 - - - - - - - 11.5 1018.7 0.0
08/02:30am ENE 7 9 - - - - - - - 11.4 1019.1 0.0
08/02:00am ENE 5 9 - - - - - - - 11.3 1019.3 0.0
08/01:30am ENE 6 10 - - - - - - - 11.6 1019.5 0.0
08/01:00am E 6 10 - - - - - - - 11.7 1019.7 0.0
08/12:30am ENE 7 11 - - - - - - - 12.2 1020.0 0.0
08/12:00am NE 8 11 - - - - - - - 13.0 1020.5 0.0
 
Date/Time
WST
Wind Sea
Height
m
Swell Vis
km
Cloud Weather Temp
°C
Press
hPa
Rain since
9am
mm
Dir  Spd
kts
Gust
kts
Height
m
Period
s
Dir
07/11:30pm NE 7 8 - - - - - - - 13.0 1020.7 0.0
07/11:00pm NE 4 7 - - - - - - - 12.7 1020.6 0.0
07/10:30pm ENE 3 5 - - - - - - - 12.7 1020.8 0.0
07/10:00pm ENE 4 6 - - - - - - - 12.9 1021.0 0.0
07/09:30pm E 4 7 - - - - - - - 12.9 1020.9 0.0
07/09:00pm ENE 6 9 - - - - - - - 13.0 1021.0 0.0
07/08:30pm E 5 7 - - - - - - - 12.7 1020.9 0.0
07/08:00pm ESE 4 6 - - - - - - - 12.8 1020.9 0.0
07/07:30pm E 5 7 - - - - - - - 13.0 1021.0 0.0
07/07:00pm E 3 5 - - - - - - - 13.2 1021.4 0.0
07/06:30pm ENE 6 8 - - - - - - - 13.7 1021.6 0.0
07/06:00pm ENE 5 9 - - - - - - - 13.8 1021.7 0.0
07/05:30pm E 3 5 - - - - - - - 14.1 1021.6 0.0
07/05:00pm NE 5 7 - - - - - - - 14.6 1021.6 0.0
07/04:30pm NE 8 11 - - - - - - - 15.0 1021.6 0.0
07/04:00pm ENE 5 7 - - - - - - - 15.4 1021.6 0.0
07/03:30pm E 5 8 - - - - - - - 15.4 1021.9 0.0
07/03:00pm ENE 6 10 - - - - - - - 15.4 1022.1 0.0
07/02:30pm E 6 10 - - - - - - - 16.0 1022.1 0.0
07/02:00pm ENE 7 11 - - - - - - - 15.2 1022.5 0.0
07/01:30pm ENE 8 13 - - - - - - - 15.3 1022.7 0.0
07/01:00pm NE 7 11 - - - - - - - 15.7 1023.2 0.0
07/12:30pm NE 8 13 - - - - - - - 14.2 1024.0 0.0
07/12:00pm NE 8 14 - - - - - - - 14.5 1024.5 0.0
07/11:30am ENE 9 15 - - - - - - - 13.4 1025.1 0.0
07/11:00am ENE 10 16 - - - - - - - 13.3 1025.7 0.0
07/10:30am NE 11 15 - - - - - - - 12.5 1026.5 0.0
07/10:00am NE 6 10 - - - - - - - 12.0 1026.9 0.0
07/09:30am NE 9 13 - - - - - - - 11.1 1026.9 0.0
07/09:00am ENE 6 11 - - - - - - - 10.6 1026.4 0.0
07/08:30am ENE 7 11 - - - - - - - 9.5 1026.4 0.0
07/08:00am E 6 9 - - - - - - - 8.6 1025.4 0.0
07/07:30am E 6 10 - - - - - - - 8.3 1025.5 0.0
07/07:00am E 7 11 - - - - - - - 8.3 1025.5 0.0
07/06:30am E 7 13 - - - - - - - 8.3 1025.3 0.0
07/06:00am ESE 6 12 - - - - - - - 8.2 1025.1 0.0
07/05:30am SE 4 6 - - - - - - - 7.8 1025.3 0.0
07/05:00am SE 4 5 - - - - - - - 8.0 1025.6 0.0
07/04:30am SE 4 6 - - - - - - - 8.2 1025.7 0.0
07/04:00am ESE 4 5 - - - - - - - 8.4 1025.9 0.0
07/03:30am ESE 4 6 - - - - - - - 8.8 1026.0 0.0
07/03:00am ESE 4 5 - - - - - - - 9.2 1026.3 0.0
07/02:30am SE 3 4 - - - - - - - 9.8 1026.7 0.0
07/02:00am SSE 3 5 - - - - - - - 10.6 1026.7 0.0
07/01:30am SE 4 7 - - - - - - - 10.7 1026.5 0.0
07/01:00am SSE 3 5 - - - - - - - 10.8 1026.1 0.0
07/12:30am SSE 4 7 - - - - - - - 10.8 1025.9 0.0
07/12:00am SE 4 6 - - - - - - - 10.6 1025.9 0.0
 
Date/Time
WST
Wind Sea
Height
m
Swell Vis
km
Cloud Weather Temp
°C
Press
hPa
Rain since
9am
mm
Dir  Spd
kts
Gust
kts
Height
m
Period
s
Dir
06/11:30pm SE 4 6 - - - - - - - 10.8 1026.0 0.0
06/11:00pm SE 4 5 - - - - - - - 10.9 1026.0 0.0
06/10:30pm SE 4 5 - - - - - - - 11.2 1026.3 0.0
06/10:00pm SE 4 6 - - - - - - - 11.5 1026.6 0.0
06/09:30pm SE 4 6 - - - - - - - 11.6 1026.7 0.0
06/09:00pm SE 3 5 - - - - - - - 11.9 1026.6 0.0
06/08:30pm SE 4 6 - - - - - - - 12.6 1026.6 0.0
06/08:00pm ESE 6 9 - - - - - - - 12.8 1026.4 0.0
06/07:30pm ESE 6 8 - - - - - - - 13.1 1026.5 0.0

Other formats

Comma delimited format used in spreadsheet applications
http://www.bom.gov.au/fwo/IDW60701/IDW60701.94605.axf

JavaScript Object Notation format (JSON) in row-major order
http://www.bom.gov.au/fwo/IDW60701/IDW60701.94605.json

Data quality

Most of these data are generated automatically and are frequently updated. Quality checks on data are not normally performed. It is possible for incorrect values to appear. Refer to information at About Latest Weather Observations and please check the disclaimer before using these data.